LDPL/PUY METAR and TAF weather

Enter ICAO airport designator
Station Type Date Time Source
LDPL METAR 2021/04/14 19:00 UTC NOAA

LDPL 141900Z 08002KT CAVOK 03/01 Q1022


Station Type Date Time Source
LDPL Decoded METAR 2021/04/14 19:00 UTC NOAA

Pula Aerodrome, Croatia (LDPL) 45-54N 013-55E 63M
Apr 14, 2021 - 03:00 PM EDT / 2021.04.14 1900 UTC
Wind: from the E (080 degrees) at 2 MPH (2 KT):0
Visibility: greater than 7 mile(s):0
Temperature: 37 F (3 C)
Dew Point: 33 F (1 C)
Relative Humidity: 86%
Pressure (altimeter): 30.18 in. Hg (1022 hPa)
ob: LDPL 141900Z 08002KT CAVOK 03/01 Q1022
cycle: 19

Station Type Date Time Source
LDPL TAF 2021/04/14 18:27 UTC NOAA

TAF LDPL 141725Z 1418/1518 04006KT CAVOK TX12/1513Z TN02/1504Z
BECMG 1500/1502 06010KT
BECMG 1510/1512 09005KT
BECMG 1513/1515 29008KT

Example: see airport list